createdAt,value
2022-12-04T00:17:56.122Z,-0.85
2022-12-04T01:39:18.565Z,-0.83
2022-12-04T01:43:11.670Z,-0.83
2022-12-04T01:50:41.106Z,-0.88
2022-12-04T03:30:35.804Z,-0.86
2022-12-04T03:37:54.020Z,-0.84
2022-12-04T04:04:53.340Z,-0.88
2022-12-04T04:07:30.466Z,-0.91
2022-12-04T04:10:07.934Z,-0.88
2022-12-04T04:12:41.163Z,-0.87
2022-12-04T04:15:31.665Z,-0.84
2022-12-04T04:18:19.923Z,-0.86
2022-12-04T04:21:14.690Z,-0.86
2022-12-04T04:24:04.553Z,-0.87
2022-12-04T04:26:40.824Z,-0.85
2022-12-04T04:29:09.454Z,-0.85
2022-12-04T04:31:45.545Z,-0.84
2022-12-04T04:34:20.889Z,-0.85
2022-12-04T04:36:56.685Z,-0.84
2022-12-04T04:39:53.558Z,-0.84
2022-12-04T04:42:39.272Z,-0.85
2022-12-04T04:45:16.575Z,-0.83
2022-12-04T04:47:49.786Z,-0.84
2022-12-04T04:50:19.118Z,-0.83
2022-12-04T04:52:50.983Z,-0.87
2022-12-04T04:55:20.058Z,-0.85
2022-12-04T04:57:47.061Z,-0.85
2022-12-04T05:00:21.071Z,-0.85
2022-12-04T05:02:50.111Z,-0.92
2022-12-04T05:05:18.135Z,-0.89
2022-12-04T05:07:45.200Z,-0.91
2022-12-04T05:10:12.325Z,-0.85
2022-12-04T05:12:39.311Z,-0.89
2022-12-04T05:15:06.867Z,-0.84
2022-12-04T05:20:18.872Z,-0.82
2022-12-04T05:22:45.883Z,-0.83
2022-12-04T05:25:12.902Z,-0.90
2022-12-04T05:27:39.944Z,-0.84
2022-12-04T05:30:07.561Z,-0.84
2022-12-04T05:32:34.760Z,-0.81
2022-12-04T05:35:06.350Z,-0.90
2022-12-04T05:37:38.249Z,-0.81
2022-12-04T05:40:06.530Z,-0.84
2022-12-04T05:42:34.902Z,-0.88
2022-12-04T05:45:01.944Z,-0.78
2022-12-04T05:47:29.408Z,-0.77
2022-12-04T05:49:58.299Z,-0.84
2022-12-04T05:52:25.677Z,-0.78
2022-12-04T05:54:52.648Z,-0.85
2022-12-04T05:57:19.633Z,-0.81
2022-12-04T05:59:46.672Z,-0.81
2022-12-04T06:02:13.728Z,-0.83
2022-12-04T06:04:40.766Z,-0.91
2022-12-04T06:07:09.057Z,-0.78
2022-12-04T06:09:36.496Z,-0.78
2022-12-04T06:12:04.449Z,-0.85
2022-12-04T06:14:36.329Z,-0.80
2022-12-04T06:17:06.866Z,-0.83
2022-12-04T06:19:33.957Z,-0.81
2022-12-04T06:22:01.514Z,-0.81
2022-12-04T06:24:28.940Z,-0.80
2022-12-04T06:27:26.185Z,-0.78
2022-12-04T06:29:45.038Z,-0.77
2022-12-04T06:32:15.258Z,-0.79
2022-12-04T06:34:46.658Z,-0.78
2022-12-04T06:37:13.638Z,-0.77
2022-12-04T06:39:40.643Z,-0.81
2022-12-04T06:42:07.642Z,-0.81
2022-12-04T06:44:34.764Z,-0.77
2022-12-04T06:47:01.961Z,-0.80
2022-12-04T06:49:29.310Z,-0.88
2022-12-04T06:51:57.090Z,-0.77
2022-12-04T06:54:24.156Z,-0.75
2022-12-04T06:56:51.096Z,-0.74
2022-12-04T06:59:18.202Z,-0.84
2022-12-04T07:01:45.218Z,-0.75
2022-12-04T07:04:12.287Z,-0.83
2022-12-04T07:06:39.976Z,-0.72
2022-12-04T07:09:10.477Z,-0.73
2022-12-04T07:11:39.181Z,-0.77
2022-12-04T07:14:06.758Z,-0.75
2022-12-04T07:16:40.430Z,-0.76
2022-12-04T07:19:09.641Z,-0.76
2022-12-04T07:21:37.635Z,-0.70
2022-12-04T07:24:05.327Z,-0.71
2022-12-04T07:26:33.229Z,-0.80
2022-12-04T07:29:00.867Z,-0.71
2022-12-04T07:31:30.058Z,-0.84
2022-12-04T07:33:57.889Z,-0.72
2022-12-04T07:36:26.630Z,-0.69
2022-12-04T07:38:55.498Z,-0.72
2022-12-04T07:41:22.834Z,-0.74
2022-12-04T07:43:49.901Z,-0.73
2022-12-04T07:46:20.558Z,-0.68
2022-12-04T07:48:47.580Z,-0.70
2022-12-04T07:51:19.987Z,-0.69
2022-12-04T07:53:47.244Z,-0.73
2022-12-04T07:56:15.169Z,-0.67
2022-12-04T07:58:43.094Z,-0.68
2022-12-04T08:01:16.263Z,-0.67
2022-12-04T08:03:47.991Z,-0.73
2022-12-04T08:06:18.399Z,-0.65
2022-12-04T08:08:46.033Z,-0.67
2022-12-04T08:11:15.974Z,-0.64
2022-12-04T08:13:43.195Z,-0.64
2022-12-04T08:16:11.884Z,-0.65
2022-12-04T08:18:39.998Z,-0.64
2022-12-04T08:21:08.401Z,-0.64
2022-12-04T08:23:38.522Z,-0.62
2022-12-04T08:26:06.759Z,-0.62
2022-12-04T08:28:37.278Z,-0.61
2022-12-04T08:31:10.265Z,-0.57
2022-12-04T08:33:37.565Z,-0.57
2022-12-04T08:36:09.575Z,-0.58
2022-12-04T08:38:37.359Z,-0.68
2022-12-04T08:41:06.985Z,-0.59
2022-12-04T08:43:34.750Z,-0.61
2022-12-04T08:46:05.422Z,-0.56
2022-12-04T08:48:33.699Z,-0.62
2022-12-04T08:51:01.980Z,-0.57
2022-12-04T08:53:29.073Z,-0.49
2022-12-04T08:55:56.904Z,-0.51
2022-12-04T08:58:24.033Z,-0.54
2022-12-04T09:00:51.138Z,-0.62
2022-12-04T09:03:23.560Z,-0.54
2022-12-04T09:05:59.112Z,-0.50
2022-12-04T09:08:26.461Z,-0.51
2022-12-04T09:10:54.688Z,-0.51
2022-12-04T09:13:21.688Z,-0.55
2022-12-04T09:15:48.781Z,-0.54
2022-12-04T09:18:15.845Z,-0.56
2022-12-04T09:20:42.811Z,-0.51
2022-12-04T09:23:09.816Z,-0.49
2022-12-04T09:25:37.897Z,-0.48
2022-12-04T09:28:05.099Z,-0.54
2022-12-04T09:30:32.201Z,-0.57
2022-12-04T09:32:59.923Z,-0.51
2022-12-04T09:35:26.951Z,-0.50
2022-12-04T09:37:53.939Z,-0.48
2022-12-04T09:40:38.176Z,-0.49
2022-12-04T09:43:24.549Z,-0.51
2022-12-04T09:45:58.995Z,-0.51
2022-12-04T09:48:33.482Z,-0.52
2022-12-04T09:51:03.034Z,-0.57
2022-12-04T09:53:43.422Z,-0.58
2022-12-04T09:56:13.918Z,-0.52
2022-12-04T09:59:03.106Z,-0.53
2022-12-04T10:01:46.263Z,-0.50
2022-12-04T10:04:13.666Z,-0.48
2022-12-04T10:07:04.957Z,-0.45
2022-12-04T10:09:42.404Z,-0.43
2022-12-04T10:12:21.220Z,-0.46
2022-12-04T10:15:10.903Z,-0.50
2022-12-04T10:17:56.611Z,-0.46
2022-12-04T10:21:09.663Z,-0.45
2022-12-04T10:24:02.075Z,-0.43
2022-12-04T10:26:36.442Z,-0.43
2022-12-04T10:29:08.377Z,-0.41
2022-12-04T10:31:37.561Z,-0.44
2022-12-04T10:34:15.983Z,-0.39
2022-12-04T10:36:49.010Z,-0.37
2022-12-04T10:39:18.706Z,-0.33
2022-12-04T10:42:09.621Z,-0.36
2022-12-04T10:44:36.751Z,-0.35
2022-12-04T10:47:06.094Z,-0.30
2022-12-04T10:49:36.025Z,-0.25
2022-12-04T10:52:05.443Z,-0.25
2022-12-04T10:54:49.930Z,-0.25
2022-12-04T10:57:17.865Z,-0.27
2022-12-04T10:59:53.777Z,-0.26
2022-12-04T11:02:33.764Z,-0.28
2022-12-04T11:05:07.490Z,-0.25
2022-12-04T11:07:37.062Z,-0.22
2022-12-04T11:10:20.923Z,-0.26
2022-12-04T11:12:59.113Z,-0.21
2022-12-04T11:15:26.753Z,-0.26
2022-12-04T11:17:53.789Z,-0.19
2022-12-04T11:20:26.690Z,-0.13
2022-12-04T11:22:57.052Z,-0.13
2022-12-04T11:25:27.586Z,-0.12
2022-12-04T11:27:56.446Z,-0.12
2022-12-04T11:30:34.712Z,-0.11
2022-12-04T11:33:03.449Z,-0.19
2022-12-04T11:35:33.132Z,-0.19
2022-12-04T11:38:13.492Z,-0.21
2022-12-04T11:40:50.447Z,-0.21
2022-12-04T11:43:18.805Z,-0.15
2022-12-04T11:45:59.962Z,-0.17
2022-12-04T11:48:29.862Z,-0.23
2022-12-04T11:51:20.331Z,-0.14
2022-12-04T11:54:02.025Z,-0.17
2022-12-04T11:56:34.802Z,-0.09
2022-12-04T11:59:24.199Z,-0.09
2022-12-04T12:02:28.106Z,-0.19
2022-12-04T12:05:25.361Z,-0.07
2022-12-04T12:08:23.192Z,-0.03
2022-12-04T12:11:06.670Z,-0.05
2022-12-04T12:14:02.984Z,-0.01
2022-12-04T12:17:00.936Z,0.08
2022-12-04T12:19:42.542Z,0.04
2022-12-04T12:23:01.028Z,0.02
2022-12-04T12:25:51.938Z,0.02
2022-12-04T12:29:03.020Z,-0.05
2022-12-04T12:31:33.122Z,0.04
2022-12-04T12:34:16.358Z,0.06
2022-12-04T12:36:49.845Z,0.07
2022-12-04T12:39:45.107Z,0.06
2022-12-04T12:42:20.835Z,0.10
2022-12-04T12:45:20.498Z,0.12
2022-12-04T12:47:52.548Z,0.09
2022-12-04T12:50:28.436Z,0.12
2022-12-04T12:53:16.517Z,0.14
2022-12-04T12:55:52.328Z,0.15
2022-12-04T12:58:29.190Z,0.20
2022-12-04T13:01:04.351Z,0.19
2022-12-04T13:03:37.228Z,0.22
2022-12-04T13:06:12.417Z,0.23
2022-12-04T13:08:49.229Z,0.23
2022-12-04T13:11:21.730Z,0.28
2022-12-04T13:13:54.545Z,0.23
2022-12-04T13:16:28.909Z,0.27
2022-12-04T13:19:24.186Z,0.25
2022-12-04T13:22:03.170Z,0.23
2022-12-04T13:25:01.117Z,0.23
2022-12-04T13:27:56.595Z,0.17
2022-12-04T13:30:28.028Z,0.14
2022-12-04T13:33:24.770Z,0.16
2022-12-04T13:36:01.147Z,0.23
2022-12-04T13:38:57.713Z,0.22
2022-12-04T13:41:27.362Z,0.20
2022-12-04T13:43:55.515Z,0.22
2022-12-04T13:46:39.881Z,0.26
2022-12-04T13:49:15.772Z,0.14
2022-12-04T13:51:43.583Z,0.23
2022-12-04T13:54:13.266Z,0.28
2022-12-04T13:56:43.252Z,0.26
2022-12-04T13:59:28.536Z,0.28
2022-12-04T14:02:08.226Z,0.29
2022-12-04T14:04:51.518Z,0.26
2022-12-04T14:07:38.481Z,0.26
2022-12-04T14:10:24.955Z,0.20
2022-12-04T14:13:02.074Z,0.22
2022-12-04T14:15:36.736Z,0.19
2022-12-04T14:18:13.165Z,0.22
2022-12-04T14:20:42.350Z,0.17
2022-12-04T14:23:37.928Z,0.24
2022-12-04T14:26:05.767Z,0.24
2022-12-04T14:28:41.702Z,0.24
2022-12-04T14:31:20.385Z,0.24
2022-12-04T14:33:52.365Z,0.22
2022-12-04T14:36:25.205Z,0.23
2022-12-04T14:39:02.333Z,0.22
2022-12-04T14:41:32.166Z,0.26
2022-12-04T14:44:00.259Z,0.26
2022-12-04T14:46:44.665Z,0.28
2022-12-04T14:49:30.154Z,0.21
2022-12-04T14:52:01.211Z,0.20
2022-12-04T14:54:42.651Z,0.23
2022-12-04T14:57:33.306Z,0.22
2022-12-04T15:00:01.818Z,0.20
2022-12-04T15:02:38.567Z,0.22
2022-12-04T15:05:18.893Z,0.21
2022-12-04T15:07:51.532Z,0.18
2022-12-04T15:10:39.529Z,0.19
2022-12-04T15:13:06.597Z,0.15
2022-12-04T15:15:33.674Z,0.03
2022-12-04T15:18:09.423Z,0.18
2022-12-04T15:20:49.217Z,0.15
2022-12-04T15:23:23.969Z,0.20
2022-12-04T15:25:54.080Z,0.18
2022-12-04T15:28:50.806Z,0.22
2022-12-04T15:31:25.618Z,0.22
2022-12-04T15:33:57.217Z,0.24
2022-12-04T15:36:34.924Z,0.23
2022-12-04T15:39:03.000Z,0.24
2022-12-04T15:41:36.009Z,0.19
2022-12-04T15:44:27.374Z,0.30
2022-12-04T15:46:56.666Z,0.29
2022-12-04T15:49:33.443Z,0.31
2022-12-04T15:52:20.970Z,0.31
2022-12-04T15:54:56.689Z,0.31
2022-12-04T15:57:40.883Z,0.31
2022-12-04T16:00:22.470Z,0.35
2022-12-04T16:02:50.475Z,0.28
2022-12-04T16:05:20.265Z,0.36
2022-12-04T16:07:53.163Z,0.39
2022-12-04T16:10:25.546Z,0.38
2022-12-04T16:12:57.748Z,0.38
2022-12-04T16:15:27.372Z,0.41
2022-12-04T16:17:54.705Z,0.43
2022-12-04T16:20:21.849Z,0.41
2022-12-04T16:22:53.149Z,0.47
2022-12-04T16:25:20.291Z,0.46
2022-12-04T16:27:47.305Z,0.46
2022-12-04T16:30:14.713Z,0.47
2022-12-04T16:32:41.984Z,0.47
2022-12-04T16:35:15.668Z,0.49
2022-12-04T16:37:42.957Z,0.54
2022-12-04T16:40:12.224Z,0.55
2022-12-04T16:42:39.738Z,0.57
2022-12-04T16:45:32.098Z,0.62
2022-12-04T16:47:59.718Z,0.56
2022-12-04T16:50:27.687Z,0.66
2022-12-04T16:52:55.087Z,0.71
2022-12-04T16:55:29.275Z,0.73
2022-12-04T16:57:56.387Z,0.75
2022-12-04T17:00:23.526Z,0.72
2022-12-04T17:02:50.854Z,0.70
2022-12-04T17:05:23.991Z,0.75
2022-12-04T17:07:51.295Z,0.74
2022-12-04T17:10:23.752Z,0.77
2022-12-04T17:12:54.555Z,0.80
2022-12-04T17:15:21.964Z,0.82
2022-12-04T17:17:49.654Z,0.86
2022-12-04T17:20:19.504Z,0.89
2022-12-04T17:22:46.605Z,0.88
2022-12-04T17:25:14.379Z,0.87
2022-12-04T17:27:41.689Z,0.84
2022-12-04T17:30:09.345Z,0.78
2022-12-04T17:32:36.643Z,0.88
2022-12-04T17:35:05.471Z,0.92
2022-12-04T17:37:33.691Z,0.91
2022-12-04T17:40:03.342Z,0.92
2022-12-04T17:42:30.824Z,0.94
2022-12-04T17:44:58.294Z,0.97
2022-12-04T17:47:25.689Z,0.93
2022-12-04T17:49:52.759Z,0.85
2022-12-04T17:52:22.313Z,0.96
2022-12-04T17:54:50.710Z,0.98
2022-12-04T17:57:18.804Z,0.94
2022-12-04T17:59:45.956Z,1.00
2022-12-04T18:02:13.271Z,1.01
2022-12-04T18:04:40.663Z,1.02
2022-12-04T18:07:07.984Z,1.03
2022-12-04T18:09:36.098Z,1.00
2022-12-04T18:12:03.470Z,1.04
2022-12-04T18:14:33.163Z,1.01
2022-12-04T18:17:02.079Z,1.09
2022-12-04T18:19:30.803Z,1.01
2022-12-04T18:21:58.523Z,1.06
2022-12-04T18:24:26.558Z,1.09
2022-12-04T18:26:53.998Z,1.13
2022-12-04T18:29:23.888Z,1.09
2022-12-04T18:31:51.742Z,1.08
2022-12-04T18:34:20.084Z,1.08
2022-12-04T18:36:47.770Z,1.05
2022-12-04T18:39:18.313Z,1.04
2022-12-04T18:41:46.223Z,1.03
2022-12-04T18:44:14.130Z,0.91
2022-12-04T18:46:41.920Z,0.97
2022-12-04T18:49:09.880Z,0.94
2022-12-04T18:51:39.543Z,1.00
2022-12-04T18:54:10.732Z,1.00
2022-12-04T18:56:37.842Z,0.97
2022-12-04T18:59:11.268Z,0.94
2022-12-04T19:01:38.892Z,0.92
2022-12-04T19:04:07.928Z,0.96
2022-12-04T19:06:50.128Z,0.94
2022-12-04T19:09:35.376Z,1.00
2022-12-04T19:12:09.410Z,1.00
2022-12-04T19:14:37.798Z,0.95
2022-12-04T19:17:04.844Z,1.01
2022-12-04T19:19:32.284Z,1.02
2022-12-04T19:22:02.224Z,1.01
2022-12-04T19:24:29.303Z,1.04
2022-12-04T19:26:56.585Z,1.05
2022-12-04T19:29:23.733Z,1.03
2022-12-04T19:31:54.612Z,1.04
2022-12-04T19:34:24.791Z,1.01
2022-12-04T19:36:54.441Z,1.02
2022-12-04T19:39:21.809Z,0.99
2022-12-04T19:41:49.066Z,1.03
2022-12-04T19:44:47.387Z,1.03
2022-12-04T19:47:03.569Z,0.99
2022-12-04T19:49:32.326Z,1.03
2022-12-04T19:51:59.376Z,1.03
2022-12-04T19:54:27.243Z,1.00
2022-12-04T19:56:54.314Z,1.01
2022-12-04T19:59:21.299Z,1.02
2022-12-04T20:01:48.509Z,1.03
2022-12-04T20:04:15.790Z,1.03
2022-12-04T20:06:45.759Z,1.09
2022-12-04T20:09:15.768Z,1.03
2022-12-04T20:11:42.921Z,1.08
2022-12-04T20:14:10.279Z,1.12
2022-12-04T20:16:38.283Z,1.07
2022-12-04T20:19:06.998Z,1.14
2022-12-04T20:21:34.663Z,1.18
2022-12-04T20:24:04.714Z,1.18
2022-12-04T20:26:38.247Z,1.13
2022-12-04T20:29:07.657Z,1.20
2022-12-04T20:31:38.266Z,1.20
2022-12-04T20:34:08.248Z,1.21
2022-12-04T20:36:37.689Z,1.18
2022-12-04T20:39:05.640Z,1.14
2022-12-04T20:41:34.004Z,1.26
2022-12-04T20:44:05.087Z,1.26
2022-12-04T20:46:37.235Z,1.26
2022-12-04T20:49:11.182Z,1.22
2022-12-04T20:51:42.577Z,1.23
2022-12-04T20:54:15.928Z,1.26
2022-12-04T20:56:43.369Z,1.28
2022-12-04T20:59:13.152Z,1.30
2022-12-04T21:01:41.283Z,1.25
2022-12-04T21:04:08.509Z,1.25
2022-12-04T21:06:38.855Z,1.32
2022-12-04T21:09:13.133Z,1.30
2022-12-04T21:11:45.456Z,1.26
2022-12-04T21:14:35.942Z,1.28
2022-12-04T21:17:04.522Z,1.35
2022-12-04T21:19:33.356Z,1.34
2022-12-04T21:22:00.983Z,1.36
2022-12-04T21:24:28.681Z,1.37
2022-12-04T21:26:56.230Z,1.39
2022-12-04T21:29:23.332Z,1.41
2022-12-04T21:31:50.322Z,1.41
2022-12-04T21:34:17.717Z,1.41
2022-12-04T21:36:46.366Z,1.45
2022-12-04T21:39:14.832Z,1.44
2022-12-04T21:42:01.143Z,1.41
2022-12-04T21:44:28.372Z,1.44
2022-12-04T21:46:55.650Z,1.41
2022-12-04T21:49:23.826Z,1.49
2022-12-04T21:51:58.875Z,1.46
2022-12-04T21:54:29.782Z,1.48
2022-12-04T21:56:57.931Z,1.52
2022-12-04T21:59:25.547Z,1.52
2022-12-04T22:01:52.924Z,1.53
2022-12-04T22:04:20.658Z,1.57
2022-12-04T22:06:47.675Z,1.56
2022-12-04T22:09:14.752Z,1.55
2022-12-04T22:11:42.059Z,1.53
2022-12-04T22:14:10.033Z,1.60
2022-12-04T22:16:41.858Z,1.61
2022-12-04T22:19:11.380Z,1.61
2022-12-04T22:21:39.042Z,1.57
2022-12-04T22:24:06.652Z,1.62
2022-12-04T22:26:33.754Z,1.64
2022-12-04T22:29:11.213Z,1.61
2022-12-04T22:31:49.317Z,1.65
2022-12-04T22:34:16.505Z,1.66
2022-12-04T22:36:43.472Z,1.68
2022-12-04T22:39:11.283Z,1.70
2022-12-04T22:41:38.463Z,1.71
2022-12-04T22:44:06.110Z,1.71
2022-12-04T22:46:34.805Z,1.73
2022-12-04T22:49:02.447Z,1.74
2022-12-04T22:51:29.544Z,1.74
2022-12-04T22:53:58.230Z,1.78
2022-12-04T22:56:32.449Z,1.77
2022-12-04T22:59:00.959Z,1.79
2022-12-04T23:01:32.425Z,1.78
2022-12-04T23:04:02.397Z,1.82
2022-12-04T23:06:32.436Z,1.83
2022-12-04T23:09:07.253Z,1.84
2022-12-04T23:11:35.597Z,1.84
2022-12-04T23:14:05.155Z,1.85
2022-12-04T23:16:34.994Z,1.87
2022-12-04T23:19:03.500Z,1.88
2022-12-04T23:21:32.030Z,1.85
2022-12-04T23:23:59.474Z,1.88
2022-12-04T23:26:32.258Z,1.93
2022-12-04T23:29:00.819Z,1.94
2022-12-04T23:31:29.561Z,1.97
2022-12-04T23:33:57.288Z,1.97
2022-12-04T23:36:24.474Z,1.95
2022-12-04T23:38:51.569Z,1.99
2022-12-04T23:41:21.387Z,2.01
2022-12-04T23:43:49.193Z,1.98
2022-12-04T23:46:19.089Z,2.00
2022-12-04T23:48:49.425Z,1.99
2022-12-04T23:51:18.793Z,2.01
2022-12-04T23:53:46.457Z,2.00
2022-12-04T23:56:17.798Z,2.09
2022-12-04T23:58:46.554Z,2.10
